Time;durP1;ratioP1;P1;durP2;ratioP2;P2;SDS_P1;SDS_P2;PMS_P1;PMS_P2;Temp;Humidity;BMP_temperature;BMP_pressure;BME280_temperature;BME280_humidity;BME280_pressure;Samples;Min_cycle;Max_cycle;Signal;HPM_P1;HPM_P2
2022/04/15 00:01:08;;;;;;;10.85;3.20;;;;;;;15.67;25.80;98943.78;4412928;32;20460;-85
2022/04/15 00:03:34;;;;;;;9.73;3.05;;;;;;;15.70;25.78;98930.28;4425331;32;20449;-88
2022/04/15 00:06:00;;;;;;;9.00;3.40;;;;;;;15.67;25.86;98931.34;4422623;32;20402;-86
2022/04/15 00:08:25;;;;;;;10.45;3.42;;;;;;;15.64;25.96;98938.69;4425204;32;20118;-86
2022/04/15 00:10:51;;;;;;;11.55;3.95;;;;;;;15.61;26.18;98928.31;4423612;32;20098;-87
2022/04/15 00:13:24;;;;;;;13.18;3.92;;;;;;;15.56;26.36;98936.59;4425863;32;20077;-85
2022/04/15 00:15:50;;;;;;;10.40;3.97;;;;;;;15.61;26.26;98934.47;4424716;32;20089;-86
2022/04/15 00:18:16;;;;;;;12.40;4.10;;;;;;;15.60;26.34;98926.59;4424240;32;20106;-85
2022/04/15 00:20:41;;;;;;;10.70;3.42;;;;;;;15.44;26.38;98925.06;4425269;32;20112;-86
2022/04/15 00:23:06;;;;;;;11.80;3.92;;;;;;;15.48;26.45;98923.88;4411625;32;20480;-85
2022/04/15 00:25:32;;;;;;;11.57;3.87;;;;;;;15.53;26.37;98916.44;4411487;32;20105;-85
2022/04/15 00:27:57;;;;;;;11.00;4.62;;;;;;;15.53;26.30;98923.56;4425543;32;20089;-85
2022/04/15 00:30:23;;;;;;;10.95;4.07;;;;;;;15.53;26.34;98915.59;4424204;32;20354;-86
2022/04/15 00:32:49;;;;;;;12.77;3.97;;;;;;;15.57;26.35;98908.22;4424892;32;20109;-86
2022/04/15 00:35:15;;;;;;;10.68;4.12;;;;;;;15.53;26.30;98916.44;4424272;32;20125;-86
2022/04/15 00:37:40;;;;;;;12.50;5.12;;;;;;;15.38;26.63;98914.06;4425418;32;20085;-86
2022/04/15 00:40:08;;;;;;;11.02;4.10;;;;;;;15.37;26.77;98918.50;4430491;32;20073;-86
2022/04/15 00:42:34;;;;;;;12.45;4.18;;;;;;;15.37;26.88;98913.19;4426616;32;20102;-85
2022/04/15 00:45:00;;;;;;;12.25;3.92;;;;;;;15.41;26.97;98911.16;4440427;32;20342;-86
2022/04/15 00:47:52;;;;;;;12.57;4.22;;;;;;;15.38;27.04;98908.75;4426722;32;20124;-86
2022/04/15 00:50:19;;;;;;;11.82;4.50;;;;;;;15.37;27.09;98910.53;4426906;32;20093;-85
2022/04/15 00:52:47;;;;;;;9.77;3.80;;;;;;;15.37;27.14;98901.72;4426929;32;20105;-84
2022/04/15 00:55:14;;;;;;;12.80;4.35;;;;;;;15.36;27.27;98906.19;4440606;32;20102;-85
2022/04/15 00:57:41;;;;;;;11.98;4.47;;;;;;;15.35;27.25;98899.19;4413641;32;20109;-86
2022/04/15 01:00:08;;;;;;;11.77;4.18;;;;;;;15.31;27.45;98897.69;4426773;32;20093;-84
2022/04/15 01:02:34;;;;;;;10.60;4.20;;;;;;;15.30;27.46;98898.69;4413778;32;20077;-85
2022/04/15 01:05:02;;;;;;;11.30;4.32;;;;;;;15.28;27.52;98890.81;4426651;32;20196;-85
2022/04/15 01:07:32;;;;;;;13.65;4.68;;;;;;;15.27;27.51;98893.56;4440558;32;20149;-87
2022/04/15 01:09:58;;;;;;;18.80;5.10;;;;;;;15.23;27.54;98884.16;4440267;32;20094;-88
2022/04/15 01:12:28;;;;;;;13.50;4.43;;;;;;;15.24;27.52;98888.47;4440203;32;20093;-87
2022/04/15 01:14:59;;;;;;;13.10;5.15;;;;;;;15.24;27.46;98888.47;4426569;32;20101;-88
2022/04/15 01:17:25;;;;;;;12.95;4.68;;;;;;;15.25;27.45;98887.53;4426670;32;20511;-88
2022/04/15 01:19:50;;;;;;;11.25;4.35;;;;;;;15.23;27.58;98878.84;4426460;32;20073;-86
2022/04/15 01:22:17;;;;;;;12.32;4.72;;;;;;;15.21;27.66;98875.44;4425968;32;20108;-86
2022/04/15 01:24:43;;;;;;;11.60;4.70;;;;;;;15.19;27.54;98875.56;4426453;32;20124;-88
2022/04/15 01:27:09;;;;;;;12.88;5.12;;;;;;;15.16;27.77;98877.56;4413649;32;20105;-86
2022/04/15 01:29:38;;;;;;;14.63;5.60;;;;;;;15.01;28.11;98871.56;4440283;32;20484;-87
2022/04/15 01:32:05;;;;;;;12.32;5.00;;;;;;;14.96;28.04;98871.91;4425332;32;20438;-88
2022/04/15 01:34:31;;;;;;;12.30;5.30;;;;;;;14.95;28.28;98878.19;4439747;32;20504;-86
2022/04/15 01:36:57;;;;;;;12.10;4.87;;;;;;;14.79;28.25;98872.25;4440678;32;20089;-87
2022/04/15 01:39:23;;;;;;;12.48;5.53;;;;;;;14.96;27.95;98873.72;4413799;32;20082;-87
2022/04/15 01:41:48;;;;;;;11.07;4.62;;;;;;;15.05;27.76;98875.72;4426312;32;20101;-85
2022/04/15 01:44:15;;;;;;;13.35;5.28;;;;;;;15.05;27.65;98865.94;4426213;32;20126;-86
2022/04/15 01:46:44;;;;;;;12.88;5.28;;;;;;;14.98;27.83;98864.69;4425862;32;20112;-86
2022/04/15 01:49:09;;;;;;;13.05;5.00;;;;;;;14.92;28.07;98867.78;4440262;32;20111;-88
2022/04/15 01:51:35;;;;;;;14.30;5.03;;;;;;;14.84;28.00;98868.31;4413431;32;20085;-88
2022/04/15 01:54:01;;;;;;;15.18;5.72;;;;;;;14.95;27.86;98870.22;4426327;32;20339;-86
2022/04/15 01:56:27;;;;;;;11.07;4.70;;;;;;;15.00;27.81;98861.91;4413345;32;20101;-87
2022/04/15 01:58:52;;;;;;;13.27;4.87;;;;;;;15.00;27.87;98865.41;4439846;32;20108;-87
2022/04/15 02:01:17;;;;;;;10.65;4.37;;;;;;;15.03;27.59;98861.72;4440123;32;20104;-88
2022/04/15 02:03:43;;;;;;;12.50;3.62;;;;;;;15.05;27.45;98857.97;4440090;32;20101;-88
2022/04/15 02:06:08;;;;;;;13.73;4.55;;;;;;;15.08;27.28;98856.91;4426245;32;20093;-87
2022/04/15 02:08:34;;;;;;;10.75;4.00;;;;;;;15.08;27.21;98849.78;4426095;32;20081;-88
2022/04/15 02:10:59;;;;;;;9.13;3.62;;;;;;;15.11;27.15;98848.72;4425645;32;20082;-87
2022/04/15 02:13:24;;;;;;;11.68;4.65;;;;;;;15.05;27.37;98852.69;4413349;32;20133;-87
2022/04/15 02:15:50;;;;;;;11.15;4.50;;;;;;;15.15;27.29;98855.50;4440120;32;20094;-88
2022/04/15 02:18:15;;;;;;;12.43;4.95;;;;;;;15.14;27.37;98853.81;4440008;32;20135;-88
2022/04/15 02:20:41;;;;;;;11.05;4.45;;;;;;;15.17;27.37;98850.94;4425990;32;20085;-86
2022/04/15 02:23:06;;;;;;;11.40;4.70;;;;;;;15.17;27.36;98856.25;4425575;32;20102;-86
2022/04/15 02:25:32;;;;;;;13.23;4.97;;;;;;;15.16;27.33;98857.19;4440008;32;20093;-85
2022/04/15 02:27:57;;;;;;;16.10;5.12;;;;;;;15.15;27.42;98855.50;4439949;32;20459;-86
2022/04/15 02:30:22;;;;;;;12.70;5.15;;;;;;;15.17;27.50;98848.28;4439748;32;20081;-85
2022/04/15 02:32:48;;;;;;;12.45;5.05;;;;;;;15.19;27.53;98856.13;4439934;32;20094;-86
2022/04/15 02:35:13;;;;;;;12.20;5.03;;;;;;;15.16;27.75;98846.56;4425439;32;20089;-84
2022/04/15 02:37:39;;;;;;;14.70;5.65;;;;;;;15.16;27.84;98845.75;4425904;32;20085;-86
2022/04/15 02:40:06;;;;;;;12.45;5.47;;;;;;;15.13;28.06;98844.16;4425850;32;20184;-85
2022/04/15 02:42:35;;;;;;;14.20;5.60;;;;;;;15.06;28.24;98838.44;4439100;32;20453;-85
2022/04/15 02:45:02;;;;;;;14.23;5.90;;;;;;;15.03;28.30;98843.16;4439752;32;20097;-87
2022/04/15 02:47:29;;;;;;;15.15;5.50;;;;;;;14.98;28.43;98839.97;4425558;32;20089;-84
2022/04/15 02:49:54;;;;;;;13.15;5.30;;;;;;;14.96;28.32;98836.56;4426047;32;20085;-86
2022/04/15 02:52:20;;;;;;;12.80;5.78;;;;;;;14.92;28.91;98841.25;4439522;32;20097;-86
2022/04/15 02:54:45;;;;;;;13.45;5.87;;;;;;;14.87;29.09;98841.59;4425506;32;20093;-85
2022/04/15 02:57:11;;;;;;;13.23;5.47;;;;;;;14.83;29.11;98847.19;4439421;32;20104;-86
2022/04/15 02:59:36;;;;;;;15.05;5.85;;;;;;;14.77;28.70;98851.13;4425078;32;20370;-86
2022/04/15 03:02:02;;;;;;;13.02;5.53;;;;;;;14.77;28.71;98837.88;4425417;32;20113;-87
2022/04/15 03:04:28;;;;;;;13.50;5.82;;;;;;;14.82;29.15;98845.53;4439432;32;20081;-88
2022/04/15 03:06:54;;;;;;;13.88;5.55;;;;;;;14.75;28.92;98845.09;4439702;32;20085;-86
2022/04/15 03:09:21;;;;;;;15.18;6.10;;;;;;;14.70;29.02;98849.91;4439535;32;20081;-87
2022/04/15 03:11:47;;;;;;;13.35;5.75;;;;;;;14.70;28.95;98852.53;4439294;32;20149;-86
2022/04/15 03:14:12;;;;;;;15.15;6.07;;;;;;;14.66;29.00;98851.03;4425278;32;20121;-85
2022/04/15 03:16:38;;;;;;;13.88;5.87;;;;;;;14.64;28.96;98843.22;4439257;32;20100;-87
2022/04/15 03:19:03;;;;;;;13.20;6.07;;;;;;;14.70;29.07;98845.44;4425275;32;20107;-87
2022/04/15 03:21:29;;;;;;;15.60;6.28;;;;;;;14.65;29.40;98852.00;4439434;32;20093;-87
2022/04/15 03:23:54;;;;;;;12.52;5.40;;;;;;;14.64;29.42;98855.59;4439192;32;20109;-86
2022/04/15 03:26:21;;;;;;;14.23;5.62;;;;;;;14.62;29.19;98857.50;4425058;32;20444;-86
2022/04/15 03:28:47;;;;;;;13.18;5.80;;;;;;;14.62;29.09;98849.56;4425394;32;20099;-85
2022/04/15 03:31:12;;;;;;;12.27;4.97;;;;;;;14.66;28.92;98853.69;4412576;32;20101;-86
2022/04/15 03:33:38;;;;;;;12.10;5.00;;;;;;;14.65;29.05;98850.19;4425068;32;20116;-86
2022/04/15 03:36:04;;;;;;;11.80;4.47;;;;;;;14.63;29.27;98846.81;4412161;32;20077;-85
2022/04/15 03:38:29;;;;;;;12.65;4.72;;;;;;;14.57;29.29;98849.91;4439193;32;20137;-87
2022/04/15 03:40:55;;;;;;;12.68;4.50;;;;;;;14.58;29.36;98845.44;4424925;32;20105;-86
2022/04/15 03:43:20;;;;;;;11.52;4.72;;;;;;;14.51;29.55;98848.50;4438798;32;20077;-86
2022/04/15 03:45:45;;;;;;;10.25;3.85;;;;;;;14.54;29.38;98843.00;4438894;32;20086;-86
2022/04/15 03:48:11;;;;;;;13.48;4.60;;;;;;;14.53;29.49;98843.09;4424568;32;20130;-85
2022/04/15 03:50:36;;;;;;;11.73;4.50;;;;;;;14.46;29.61;98839.16;4424732;32;20169;-85
2022/04/15 03:53:02;;;;;;;12.70;4.90;;;;;;;14.47;29.54;98840.88;4438774;32;20137;-86
2022/04/15 03:55:27;;;;;;;13.02;4.62;;;;;;;14.50;29.44;98841.47;4440794;32;20081;-85
2022/04/15 03:57:53;;;;;;;11.35;4.20;;;;;;;14.50;29.37;98833.53;4414141;32;20116;-85
2022/04/15 04:00:20;;;;;;;12.00;4.70;;;;;;;14.60;29.08;98836.41;4423835;32;20390;-86
2022/04/15 04:02:47;;;;;;;13.30;5.50;;;;;;;14.58;29.00;98825.06;4424451;32;20165;-85
2022/04/15 04:05:13;;;;;;;13.57;6.18;;;;;;;14.55;29.35;98819.97;4424378;32;20097;-85
2022/04/15 04:07:40;;;;;;;13.00;5.20;;;;;;;14.59;29.30;98821.47;4424430;32;20422;-86
2022/04/15 04:10:06;;;;;;;12.13;4.75;;;;;;;14.62;29.23;98823.91;4425687;32;20464;-86
2022/04/15 04:12:33;;;;;;;13.27;5.22;;;;;;;14.68;29.18;98825.25;4425330;32;20097;-88
2022/04/15 04:14:59;;;;;;;15.50;5.32;;;;;;;14.75;28.99;98827.37;4437350;32;20098;-86
2022/04/15 04:17:25;;;;;;;12.60;5.40;;;;;;;14.83;28.93;98826.81;4424436;32;20441;-87
2022/04/15 04:19:50;;;;;;;15.27;5.05;;;;;;;14.91;29.16;98821.84;4425728;32;20144;-87
2022/04/15 04:22:16;;;;;;;13.10;4.95;;;;;;;15.00;29.22;98827.44;4425749;32;20096;-88
2022/04/15 04:24:41;;;;;;;13.00;5.62;;;;;;;15.09;29.35;98826.78;4424153;32;20093;-88
2022/04/15 04:27:06;;;;;;;13.43;5.47;;;;;;;15.17;29.31;98823.56;4425743;32;20139;-87
2022/04/15 04:29:32;;;;;;;12.37;5.10;;;;;;;15.25;29.30;98823.84;4424421;32;20144;-86
2022/04/15 04:31:57;;;;;;;12.43;5.12;;;;;;;15.39;29.18;98823.66;4425381;32;20104;-87
2022/04/15 04:34:22;;;;;;;13.52;5.37;;;;;;;15.53;29.06;98831.47;4433795;32;20542;-86
2022/04/15 04:36:48;;;;;;;13.18;5.62;;;;;;;15.64;29.15;98832.47;4456212;32;20467;-85
2022/04/15 04:39:13;;;;;;;15.27;5.50;;;;;;;15.70;29.26;98832.00;4456494;32;20085;-87
2022/04/15 04:41:39;;;;;;;13.62;5.50;;;;;;;15.69;29.02;98830.31;4456167;32;20081;-84
2022/04/15 04:44:05;;;;;;;16.02;5.62;;;;;;;15.69;29.02;98817.03;4456329;32;20111;-89
2022/04/15 04:46:31;;;;;;;13.10;5.45;;;;;;;15.86;28.98;98832.59;4456464;32;20106;-90
2022/04/15 04:48:57;;;;;;;18.05;5.90;;;;;;;16.07;29.57;98831.91;4429229;32;20464;-90
2022/04/15 04:51:23;;;;;;;13.93;5.32;;;;;;;15.95;31.29;98833.69;4456186;32;20092;-93
2022/04/15 04:53:48;;;;;;;11.70;4.78;;;;;;;15.96;29.01;98834.56;4456176;32;20154;-91
2022/04/15 04:56:15;;;;;;;18.58;6.60;;;;;;;16.19;28.48;98835.47;4456200;32;20109;-93
2022/04/15 04:58:41;;;;;;;15.43;5.53;;;;;;;16.22;29.20;98841.34;4442352;32;20154;-95
2022/04/15 05:01:06;;;;;;;13.45;5.55;;;;;;;16.29;28.64;98839.09;4456198;32;20149;-94
2022/04/15 05:03:32;;;;;;;12.80;5.20;;;;;;;16.34;26.95;98838.72;4441990;32;20089;-94
2022/04/15 05:05:57;;;;;;;13.55;5.03;;;;;;;16.48;27.13;98838.50;4441834;32;20357;-93
2022/04/15 05:08:22;;;;;;;13.45;5.10;;;;;;;16.61;28.12;98841.91;4456147;32;20101;-94
2022/04/15 05:10:48;;;;;;;14.73;5.90;;;;;;;16.59;27.89;98837.66;4456024;32;20085;-93
2022/04/15 05:13:13;;;;;;;13.50;5.82;;;;;;;16.75;26.89;98840.81;4456123;32;20154;-94
2022/04/15 05:15:39;;;;;;;12.52;5.18;;;;;;;16.82;26.62;98844.69;4456235;32;20133;-93
2022/04/15 05:18:04;;;;;;;13.68;5.75;;;;;;;16.89;27.14;98850.37;4442077;32;20465;-92
2022/04/15 05:20:30;;;;;;;13.90;5.50;;;;;;;16.95;27.20;98846.38;4455910;32;20089;-91
2022/04/15 05:22:56;;;;;;;14.18;6.45;;;;;;;17.17;27.32;98846.34;4410304;32;20346;-90
2022/04/15 05:25:21;;;;;;;14.82;5.68;;;;;;;17.24;27.83;98844.03;4440531;32;20081;-91
2022/04/15 05:27:47;;;;;;;11.95;5.28;;;;;;;17.30;27.58;98848.84;4438096;32;20124;-89
2022/04/15 05:30:12;;;;;;;12.60;4.62;;;;;;;17.50;27.38;98849.91;4425943;32;20109;-94
2022/04/15 05:32:38;;;;;;;13.65;4.70;;;;;;;17.58;28.41;98850.09;4425793;32;20120;-95
2022/04/15 05:35:04;;;;;;;12.75;4.28;;;;;;;17.70;28.90;98845.56;4436053;32;20441;-90
2022/04/15 05:37:29;;;;;;;10.60;3.85;;;;;;;17.81;29.26;98840.22;4440632;32;20131;-86
2022/04/15 05:39:55;;;;;;;11.38;4.10;;;;;;;17.92;30.63;98841.97;4413508;32;20432;-90
2022/04/15 05:42:20;;;;;;;9.07;3.97;;;;;;;17.95;31.05;98841.75;4440316;32;20136;-94
2022/04/15 05:44:46;;;;;;;11.65;4.68;;;;;;;18.03;31.12;98841.94;4440269;32;20132;-92
2022/04/15 05:47:13;;;;;;;12.73;4.82;;;;;;;18.14;30.36;98832.16;4440785;32;20098;-90
2022/04/15 05:49:38;;;;;;;14.48;5.37;;;;;;;18.39;27.63;98838.94;4440782;32;20126;-91
2022/04/15 05:52:04;;;;;;;12.10;5.07;;;;;;;18.53;26.54;98843.06;4426345;32;20089;-88
2022/04/15 05:54:30;;;;;;;10.55;3.85;;;;;;;18.46;28.18;98838.25;4440282;32;20081;-87
2022/04/15 05:56:55;;;;;;;12.95;5.28;;;;;;;18.67;30.05;98832.88;4433000;32;20460;-86
2022/04/15 05:59:21;;;;;;;12.18;5.25;;;;;;;18.80;29.62;98840.69;4439613;32;20085;-93
2022/04/15 06:01:51;;;;;;;13.55;6.20;;;;;;;18.93;27.61;98840.47;4427459;32;20084;-90
2022/04/15 06:04:17;;;;;;;14.23;5.12;;;;;;;19.05;26.54;98833.19;4440267;32;20073;-93
2022/04/15 06:06:43;;;;;;;14.70;4.50;;;;;;;19.16;26.42;98832.22;4426003;32;20097;-93
2022/04/15 06:09:08;;;;;;;9.65;3.92;;;;;;;19.08;27.57;98835.56;4440308;32;20119;-93
2022/04/15 06:11:34;;;;;;;12.93;4.03;;;;;;;19.17;28.62;98842.75;4440139;32;20131;-88
2022/04/15 06:14:01;;;;;;;11.65;4.20;;;;;;;19.27;28.12;98845.44;4437335;32;20078;-87
2022/04/15 06:16:32;;;;;;;11.10;4.30;;;;;;;19.07;28.13;98846.41;4439375;32;20791;-90
2022/04/15 06:18:58;;;;;;;11.35;4.40;;;;;;;19.16;28.06;98843.75;4440047;32;20097;-89
2022/04/15 06:21:24;;;;;;;12.73;4.18;;;;;;;19.16;27.77;98851.78;4438554;32;20081;-91
2022/04/15 06:23:49;;;;;;;14.32;4.57;;;;;;;19.25;28.07;98847.41;4436416;32;20107;-89
2022/04/15 06:26:14;;;;;;;13.43;4.05;;;;;;;19.32;27.83;98850.41;4439441;32;20156;-89
2022/04/15 06:28:40;;;;;;;11.27;4.00;;;;;;;19.24;28.51;98845.75;4426022;32;20136;-87
2022/04/15 06:31:05;;;;;;;12.37;3.72;;;;;;;19.20;28.51;98855.00;4439956;32;20081;-86
2022/04/15 06:33:31;;;;;;;13.15;4.12;;;;;;;19.34;28.76;98845.75;4425623;32;20123;-86
2022/04/15 06:35:56;;;;;;;10.80;4.20;;;;;;;19.39;28.81;98844.38;4439454;32;20140;-88
2022/04/15 06:38:21;;;;;;;14.05;4.47;;;;;;;19.54;28.23;98844.78;4439880;32;20101;-87
2022/04/15 06:40:47;;;;;;;13.88;4.45;;;;;;;19.66;28.12;98837.47;4439716;32;20081;-88
2022/04/15 06:43:14;;;;;;;12.35;4.75;;;;;;;19.75;28.23;98835.84;4437237;32;20391;-87
2022/04/15 06:45:39;;;;;;;10.63;4.28;;;;;;;20.01;27.41;98836.09;4425139;32;20566;-89
2022/04/15 06:48:05;;;;;;;13.32;4.70;;;;;;;20.07;27.03;98834.66;4439304;32;20155;-87
2022/04/15 06:50:31;;;;;;;12.95;5.70;;;;;;;20.03;27.42;98837.66;4419880;32;20123;-88
2022/04/15 06:52:56;;;;;;;14.18;5.70;;;;;;;20.22;27.55;98826.06;4439153;32;20096;-87
2022/04/15 06:55:22;;;;;;;14.82;5.65;;;;;;;20.41;26.86;98832.34;4439284;32;20117;-89
2022/04/15 06:57:47;;;;;;;12.55;5.65;;;;;;;20.58;25.96;98831.59;4425003;32;20106;-89
2022/04/15 07:00:13;;;;;;;14.00;6.35;;;;;;;20.76;25.04;98828.16;4424666;32;20105;-88
2022/04/15 07:02:40;;;;;;;15.02;6.35;;;;;;;20.68;24.94;98830.75;4425134;32;20093;-89
2022/04/15 07:05:07;;;;;;;14.27;6.93;;;;;;;20.60;25.36;98832.31;4439091;32;20164;-89
2022/04/15 07:07:33;;;;;;;;;;;;;;;20.49;25.84;98835.13;4429984;32;20105;-90
2022/04/15 07:09:58;;;;;;;15.23;8.32;;;;;;;20.66;25.79;98828.22;4414375;32;19991;-91
2022/04/15 07:12:23;;;;;;;18.33;8.63;;;;;;;20.71;25.79;98835.81;4425363;32;20446;-88
2022/04/15 07:14:49;;;;;;;17.17;8.00;;;;;;;20.89;25.96;98838.53;4425228;32;20113;-89
2022/04/15 07:17:14;;;;;;;16.05;8.20;;;;;;;21.07;26.11;98831.38;4439166;32;20486;-89
2022/04/15 07:19:39;;;;;;;26.80;8.73;;;;;;;21.21;25.92;98841.63;4438989;32;20098;-88
2022/04/15 07:22:05;;;;;;;16.23;8.02;;;;;;;21.45;25.49;98831.34;4438986;32;20493;-89
2022/04/15 07:24:34;;;;;;;15.43;8.48;;;;;;;21.49;25.68;98843.44;4439247;32;20101;-89
2022/04/15 07:27:00;;;;;;;15.20;8.75;;;;;;;21.70;25.15;98841.28;4412695;32;20105;-90
2022/04/15 07:29:30;;;;;;;18.80;8.20;;;;;;;21.63;25.29;98842.06;4440017;32;20120;-90
2022/04/15 07:31:56;;;;;;;17.35;8.65;;;;;;;21.59;25.51;98842.37;4427505;32;20131;-91
2022/04/15 07:34:21;;;;;;;17.17;8.75;;;;;;;21.67;25.05;98846.97;4441017;32;20069;-92
2022/04/15 07:36:53;;;;;;;17.75;8.05;;;;;;;21.69;25.23;98849.50;4426980;32;20471;-92
2022/04/15 07:39:20;;;;;;;19.17;8.50;;;;;;;21.82;25.99;98846.44;4440671;32;20089;-92
2022/04/15 07:41:45;;;;;;;15.82;7.68;;;;;;;21.96;26.22;98837.81;4427267;32;20086;-92
2022/04/15 07:44:11;;;;;;;15.27;8.15;;;;;;;22.40;25.72;98851.25;4414329;32;20175;-93
2022/04/15 07:46:38;;;;;;;17.55;8.35;;;;;;;22.61;24.92;98863.47;4427314;32;20097;-94
2022/04/15 07:49:04;;;;;;;15.73;7.62;;;;;;;22.63;24.24;98866.84;4427443;32;20111;-94
2022/04/15 07:51:30;;;;;;;16.05;8.05;;;;;;;22.51;24.21;98864.44;4414371;32;20575;-94
2022/04/15 07:53:56;;;;;;;15.00;7.78;;;;;;;22.58;24.22;98868.16;4427168;32;20136;-95
2022/04/15 07:56:22;;;;;;;16.70;7.75;;;;;;;22.57;24.69;98871.00;4441199;32;20094;-94
2022/04/15 07:58:48;;;;;;;15.85;7.60;;;;;;;22.50;25.74;98872.63;4441221;32;20417;-94
2022/04/15 08:01:13;;;;;;;16.12;7.47;;;;;;;22.53;25.47;98877.69;4441189;32;20095;-94
2022/04/15 08:03:39;;;;;;;16.00;7.37;;;;;;;22.78;25.12;98879.53;4441031;32;20153;-93
2022/04/15 08:06:05;;;;;;;14.00;7.00;;;;;;;22.76;24.03;98878.84;4441112;32;20153;-95
2022/04/15 08:08:31;;;;;;;16.40;7.65;;;;;;;22.97;24.36;98866.88;4426858;32;20116;-94
2022/04/15 08:10:57;;;;;;;16.62;7.85;;;;;;;23.09;24.17;98865.59;4427098;32;20089;-94
2022/04/15 08:13:23;;;;;;;14.60;7.30;;;;;;;23.07;24.20;98866.78;4427113;32;20102;-93
2022/04/15 08:15:53;;;;;;;15.15;7.68;;;;;;;23.45;22.95;98862.69;4427242;32;20385;-94
2022/04/15 08:18:19;;;;;;;16.60;7.62;;;;;;;23.43;22.57;98867.41;4426990;32;20562;-94
2022/04/15 08:20:44;;;;;;;14.20;7.43;;;;;;;23.62;22.97;98863.53;4427238;32;20066;-92
2022/04/15 08:23:09;;;;;;;20.95;8.93;;;;;;;23.72;22.47;98861.56;4426897;32;20109;-94
2022/04/15 08:25:36;;;;;;;14.93;7.35;;;;;;;23.78;21.98;98853.81;4440995;32;20126;-95
2022/04/15 08:28:03;;;;;;;15.73;7.87;;;;;;;23.82;21.69;98858.75;4426805;32;20449;-94
2022/04/15 08:30:30;;;;;;;15.88;8.18;;;;;;;23.71;21.90;98854.50;4441006;32;20097;-93
2022/04/15 08:32:57;;;;;;;18.67;9.10;;;;;;;23.82;21.17;98858.75;4427146;32;20101;-95
2022/04/15 08:35:23;;;;;;;16.77;8.93;;;;;;;23.87;21.30;98860.94;4440822;32;20396;-93
2022/04/15 08:37:48;;;;;;;16.25;8.50;;;;;;;23.81;21.42;98875.06;4426917;32;20083;-93
2022/04/15 08:40:14;;;;;;;17.25;9.13;;;;;;;23.65;21.67;98873.97;4440327;32;20502;-94
2022/04/15 08:42:41;;;;;;;16.30;8.60;;;;;;;23.73;21.08;98875.84;4426746;32;20097;-93
2022/04/15 08:45:10;;;;;;;16.77;7.80;;;;;;;23.61;21.23;98869.94;4426940;32;20162;-94
2022/04/15 08:47:40;;;;;;;15.70;7.32;;;;;;;23.59;21.45;98877.34;4440894;32;20434;-94
2022/04/15 08:50:07;;;;;;;14.00;5.82;;;;;;;23.57;21.99;98876.66;4440773;32;20085;-93
2022/04/15 08:52:33;;;;;;;11.02;4.82;;;;;;;23.69;20.77;98875.34;4440920;32;20120;-92
2022/04/15 08:54:59;;;;;;;10.63;4.32;;;;;;;23.42;18.52;98875.63;4440813;32;20090;-92
2022/04/15 08:57:25;;;;;;;11.27;4.62;;;;;;;23.16;18.26;98877.38;4440700;32;20098;-93
2022/04/15 08:59:50;;;;;;;13.18;4.87;;;;;;;23.08;18.07;98876.50;4440589;32;20446;-93
2022/04/15 09:02:33;;;;;;;13.52;4.82;;;;;;;23.18;18.12;98869.16;4426635;32;20392;-93
2022/04/15 09:04:59;;;;;;;10.65;4.78;;;;;;;23.37;18.03;98868.03;4426952;32;20135;-91
2022/04/15 09:07:29;;;;;;;11.80;4.85;;;;;;;23.20;18.50;98867.16;4426833;32;20175;-93
2022/04/15 09:09:58;;;;;;;12.90;4.78;;;;;;;23.54;18.73;98875.13;4427017;32;20086;-93
2022/04/15 09:12:35;;;;;;;11.40;4.00;;;;;;;23.62;17.62;98863.53;4440967;32;20097;-92
2022/04/15 09:15:00;;;;;;;11.05;4.97;;;;;;;23.82;18.25;98864.13;4427814;32;20502;-92
2022/04/15 09:17:29;;;;;;;10.32;4.40;;;;;;;23.91;17.88;98871.22;4440655;32;20106;-92
2022/04/15 09:19:58;;;;;;;12.23;4.25;;;;;;;23.70;17.69;98865.41;4426895;32;20146;-92
2022/04/15 09:22:24;;;;;;;11.18;4.20;;;;;;;23.73;17.92;98857.03;4426842;32;20090;-94
2022/04/15 09:24:52;;;;;;;14.55;4.50;;;;;;;23.51;17.85;98863.88;4440841;32;20115;-92
2022/04/15 09:27:23;;;;;;;11.25;3.80;;;;;;;23.57;18.08;98848.94;4426968;32;20118;-92
2022/04/15 09:29:50;;;;;;;10.90;4.10;;;;;;;23.38;17.70;98860.81;4426886;32;20081;-93
2022/04/15 09:32:17;;;;;;;12.23;4.07;;;;;;;23.54;17.83;98859.00;4426621;32;20113;-94
2022/04/15 09:35:05;;;;;;;11.38;4.03;;;;;;;23.67;18.27;98860.38;4440399;32;20124;-92
2022/04/15 09:37:34;;;;;;;10.63;4.20;;;;;;;23.69;17.93;98861.88;4440645;32;20097;-93
2022/04/15 09:40:05;;;;;;;10.35;3.85;;;;;;;23.83;18.21;98870.34;4426475;32;20093;-94
2022/04/15 09:42:30;;;;;;;11.77;4.40;;;;;;;23.61;18.27;98864.56;4426457;32;20544;-92
2022/04/15 09:44:59;;;;;;;9.00;3.70;;;;;;;23.65;18.25;98871.28;4440467;32;20129;-93
2022/04/15 09:47:24;;;;;;;12.18;3.95;;;;;;;23.52;18.40;98862.88;4426745;32;20103;-93
2022/04/15 09:49:50;;;;;;;12.05;4.45;;;;;;;23.39;18.37;98865.19;4421773;32;155277;-93
2022/04/15 09:52:25;;;;;;;11.93;4.40;;;;;;;23.44;18.95;98868.22;4439286;32;20125;-93
2022/04/15 09:54:52;;;;;;;13.40;4.97;;;;;;;23.65;19.92;98862.41;4440362;32;20101;-92
2022/04/15 09:57:18;;;;;;;12.15;4.60;;;;;;;23.46;20.42;98863.53;4426554;32;20154;-92
2022/04/15 09:59:45;;;;;;;11.12;4.68;;;;;;;23.64;20.73;98861.56;4426274;32;20085;-93
2022/04/15 10:02:11;;;;;;;12.57;5.20;;;;;;;23.86;21.04;98859.25;4426261;32;20415;-94
2022/04/15 10:04:37;;;;;;;14.50;5.20;;;;;;;23.96;21.20;98854.53;4426436;32;20175;-93
2022/04/15 10:07:06;;;;;;;14.87;5.37;;;;;;;23.77;21.01;98854.84;4426246;32;20173;-94
2022/04/15 10:09:35;;;;;;;13.40;5.60;;;;;;;23.95;21.29;98847.47;4426670;32;20115;-93
2022/04/15 10:12:02;;;;;;;13.27;5.20;;;;;;;24.02;21.55;98832.34;4426173;32;20123;-93
2022/04/15 10:14:28;;;;;;;15.80;5.65;;;;;;;23.87;21.50;98836.72;4440175;32;20120;-93
2022/04/15 10:16:54;;;;;;;14.60;5.20;;;;;;;23.82;20.12;98837.22;4426102;32;20120;-93
2022/04/15 10:19:20;;;;;;;12.93;5.80;;;;;;;23.44;20.15;98847.56;4426336;32;20104;-93
2022/04/15 10:21:46;;;;;;;11.40;4.78;;;;;;;23.61;20.38;98850.28;4440069;32;20093;-93
2022/04/15 10:24:12;;;;;;;15.00;5.20;;;;;;;23.74;19.29;98846.09;4426356;32;20109;-92
2022/04/15 10:26:45;;;;;;;14.43;4.60;;;;;;;23.63;19.50;98854.47;4426411;32;20089;-93
2022/04/15 10:29:11;;;;;;;11.00;4.57;;;;;;;23.74;19.25;98850.66;4426400;32;20085;-92
2022/04/15 10:31:43;;;;;;;13.07;5.07;;;;;;;23.89;19.37;98851.69;4440370;32;20090;-92
2022/04/15 10:34:17;;;;;;;12.48;4.18;;;;;;;23.81;18.80;98845.47;4413214;32;20481;-91
2022/04/15 10:36:54;;;;;;;11.80;4.60;;;;;;;23.72;18.08;98848.13;4426055;32;20149;-93
2022/04/15 10:39:23;;;;;;;11.25;4.35;;;;;;;23.92;18.21;98843.28;4439985;32;20107;-92
2022/04/15 10:41:50;;;;;;;11.30;4.10;;;;;;;23.86;18.25;98853.88;4425921;32;20421;-93
2022/04/15 10:44:35;;;;;;;;;;;;;;;24.07;17.87;98853.38;4440179;32;20101;-93
2022/04/15 10:47:09;;;;;;;11.27;4.30;;;;;;;23.49;18.63;98860.53;4440101;32;19980;-93
2022/04/15 10:49:34;;;;;;;11.45;3.97;;;;;;;23.62;18.88;98857.34;4425754;32;20141;-92
2022/04/15 10:52:14;;;;;;;11.25;4.10;;;;;;;23.94;18.80;98853.88;4425991;32;20373;-93
2022/04/15 10:54:48;;;;;;;11.85;4.12;;;;;;;24.00;18.65;98858.59;4425732;32;20093;-93
2022/04/15 10:57:14;;;;;;;12.30;4.43;;;;;;;24.03;18.64;98858.25;4439809;32;20089;-92
2022/04/15 11:02:50;;;;;;;11.80;3.92;;;;;;;23.64;17.97;98853.50;4427895;32;20128;-93
2022/04/15 11:05:52;;;;;;;11.65;4.45;;;;;;;23.81;18.57;98848.97;4414753;32;20113;-92
2022/04/15 11:08:22;;;;;;;12.23;4.18;;;;;;;23.64;18.62;98856.19;4427619;32;20111;-92
2022/04/15 11:11:07;;;;;;;12.43;4.53;;;;;;;23.41;19.12;98855.97;4427631;32;20080;-93
2022/04/15 11:13:52;;;;;;;12.32;4.18;;;;;;;23.36;19.75;98853.75;4441569;32;20089;-93
2022/04/15 11:16:21;;;;;;;13.85;4.35;;;;;;;23.35;19.98;98856.59;4441346;32;20120;-92
2022/04/15 11:19:00;;;;;;;13.13;4.70;;;;;;;22.94;21.06;98853.75;4441493;32;20089;-93
2022/04/15 11:21:32;;;;;;;10.85;4.62;;;;;;;22.83;21.49;98856.72;4427545;32;20471;-94
2022/04/15 11:24:07;;;;;;;10.63;4.65;;;;;;;22.89;20.89;98856.94;4427607;32;20101;-93
2022/04/15 11:26:35;;;;;;;14.00;4.35;;;;;;;22.74;21.51;98863.91;4441540;32;20120;-92
2022/04/15 11:29:01;;;;;;;;;;;;;;;22.92;21.33;98856.59;4427724;32;20085;-93